Nail, Arkansas
Current Conditions -  °F | °C
As of 6:53 AM on Thursday 23 Oct 2014 (Local Time) from KHRO Reporting Station
Clear Clear  
Wind Chill: 46°   Ceiling: Unl
Heat Index: 48°   Visibility: 10mi
Dew Point: 47°   Wind: 5mph
Humidity: 96%   Direction: 140°SE
Pressure: 30.19"   Gusts: NA
Location:  35.8413°N, 93.3507°W
Report Text: KHRO 231153Z AUTO 14004KT 10SM CLR 09/08 A3019 RMK AO2 SLP220 T00890083 10100 20083 53004
Loading
Personal Weather Stations






























Interactive Weather Map
Tropical Storm Tracking
New forecast layout! Learn more

10-Day Weather Forecast

Advertisements
Track Severe Weather on mobile